Teigen, MT

11:52 AM MDT on October 02, 2014 (GMT -0600)
Jordan | Change Station
CLOSE
Current Station
Airport
Location: Jordan,
Elevation: 2661 ft
Nearby Weather Stations
Active Advisory: Lake Wind Advisory

Elev 2661 ft 47.33 °N, 106.95 °W | Updated 4 minutes ago

Overcast
Overcast
41 °F
Feels Like 31 °F
N
25
Wind Variable Wind from NNW
Gusts 33 mph

Today
High -- | Low -- °F
--% Chance of Precip.
Yesterday
High -- | Low -- °F
Precip. -- in
7:14 AM 6:51 PM
First Quarter, 61% visible
Pressure 30.15 in
Visibility -9999.0 miles
Clouds
Windchill 31 °F
Dew Point 33 °F
Humidity 73%
Rainfall 0.00 in
Snow Depth 1 in , 0 in , 0 in
UV Not available.
Pollen 3.20 out of 12
Air Quality Not available.
Flu Activity Not available.
METAR KJDN 021748Z AUTO 33022G29KT 05/01 A3009 RMK AO1 PK WND 33029/1748 SLP208 T00500006 10061 20033 53035

More Conditions Fewer Conditions

Pressure 30.15 in
Visibility -9999.0 miles
Clouds
Windchill 31 °F
Dew Point 33 °F
Humidity 73%
Rainfall 0.00 in
Snow Depth 1 in , 0 in , 0 in
UV Not available.
Pollen 3.20 out of 12
Air Quality Not available.
Flu Activity Not available.
METAR KJDN 021748Z AUTO 33022G29KT 05/01 A3009 RMK AO1 PK WND 33029/1748 SLP208 T00500006 10061 20033 53035

More Conditions Fewer Conditions

10-Day Weather Forecast

Almanac

Astronomy

Oct. 02, 2014 Rise Set
Actual Time 7:14 AM MDT 6:51 PM MDT
Civil Twilight 6:44 AM MDT 7:22 PM MDT
Nautical Twilight 6:08 AM MDT 7:57 PM MDT
Astronomical Twilight 5:32 AM MDT 8:33 PM MDT
Moon 3:20 PM MDT 12:13 AM MDT
Length of Visible Light 12h 37m
Length of Day
11h 37m
Tomorrow will be 3m 19s shorter.
First Quarter, 61% of the Moon is Illuminated
Today
First Quarter
Oct 8
Full
Oct 15
Last Quarter
Oct 23
New
Oct 30
First Quarter

Today's Extremes

State Highs State Lows

Community

WunderPhotos

Upload Photos

1,758,312 photos uploaded!

Nearby

Snow Depth

Station Depth Elevation
Mule Creek 1 in 8300 ft
Porcupine 0 in 6500 ft
Twelvemile Creek 0 in 5600 ft
North Fork Jocko 0 in 6330 ft
Lubrecht Flume 0 in 4680 ft

Earthquake Activity

City Distance Mag. Time & Date
No recent earthquake activity has been reported nearby.
Minimum magnitude displayed is 2.5.

Coastal Water Temperatures

Place Temperature
No Stations Reporting

Nearby Weather Stations